sensor_id;sensor_type;location;lat;lon;timestamp;pressure;altitude;pressure_sealevel;temperature;humidity
40794;BME280;26502;51.886;15.604;2023-01-29T00:03:25;101854.01;;;-1.32;73.56
40794;BME280;26502;51.886;15.604;2023-01-29T00:08:35;101857.59;;;-1.40;73.28
40794;BME280;26502;51.886;15.604;2023-01-29T00:13:44;101849.52;;;-1.46;73.28
40794;BME280;26502;51.886;15.604;2023-01-29T00:18:51;101834.80;;;-1.54;73.31
40794;BME280;26502;51.886;15.604;2023-01-29T00:23:59;101822.86;;;-1.61;73.31
40794;BME280;26502;51.886;15.604;2023-01-29T00:29:06;101813.71;;;-1.64;73.46
40794;BME280;26502;51.886;15.604;2023-01-29T00:34:15;101805.62;;;-1.66;73.41
40794;BME280;26502;51.886;15.604;2023-01-29T00:39:22;101798.50;;;-1.70;73.40
40794;BME280;26502;51.886;15.604;2023-01-29T00:44:30;101805.85;;;-1.69;73.36
40794;BME280;26502;51.886;15.604;2023-01-29T00:49:55;101804.73;;;-1.71;73.36
40794;BME280;26502;51.886;15.604;2023-01-29T00:55:03;101794.42;;;-1.78;73.32
40794;BME280;26502;51.886;15.604;2023-01-29T01:00:15;101795.23;;;-1.89;73.41
40794;BME280;26502;51.886;15.604;2023-01-29T01:05:23;101796.16;;;-1.97;73.49
40794;BME280;26502;51.886;15.604;2023-01-29T01:10:32;101797.20;;;-2.06;73.74
40794;BME280;26502;51.886;15.604;2023-01-29T01:15:40;101796.88;;;-2.06;73.71
40794;BME280;26502;51.886;15.604;2023-01-29T01:20:48;101793.01;;;-2.07;73.58
40794;BME280;26502;51.886;15.604;2023-01-29T01:25:57;101782.55;;;-2.12;73.69
40794;BME280;26502;51.886;15.604;2023-01-29T01:31:11;101783.60;;;-2.16;73.81
40794;BME280;26502;51.886;15.604;2023-01-29T01:36:18;101778.02;;;-2.26;73.95
40794;BME280;26502;51.886;15.604;2023-01-29T01:41:28;101783.03;;;-2.32;73.84
40794;BME280;26502;51.886;15.604;2023-01-29T01:46:36;101770.73;;;-2.35;74.08
40794;BME280;26502;51.886;15.604;2023-01-29T01:51:47;101758.83;;;-2.41;73.77
40794;BME280;26502;51.886;15.604;2023-01-29T01:56:59;101762.05;;;-2.48;74.14
40794;BME280;26502;51.886;15.604;2023-01-29T02:02:15;101766.63;;;-2.51;74.14
40794;BME280;26502;51.886;15.604;2023-01-29T02:07:44;101753.41;;;-2.56;74.13
40794;BME280;26502;51.886;15.604;2023-01-29T02:13:11;101760.98;;;-2.58;74.24
40794;BME280;26502;51.886;15.604;2023-01-29T02:18:23;101763.23;;;-2.58;74.19
40794;BME280;26502;51.886;15.604;2023-01-29T02:23:53;101755.05;;;-2.59;74.31
40794;BME280;26502;51.886;15.604;2023-01-29T02:29:08;101744.19;;;-2.65;74.47
40794;BME280;26502;51.886;15.604;2023-01-29T02:34:37;101746.08;;;-2.70;74.69
40794;BME280;26502;51.886;15.604;2023-01-29T02:40:11;101746.52;;;-2.72;74.68
40794;BME280;26502;51.886;15.604;2023-01-29T02:45:23;101761.86;;;-2.76;74.68
40794;BME280;26502;51.886;15.604;2023-01-29T02:50:40;101766.83;;;-2.82;74.67
40794;BME280;26502;51.886;15.604;2023-01-29T02:55:53;101756.86;;;-2.88;74.89
40794;BME280;26502;51.886;15.604;2023-01-29T03:01:06;101760.48;;;-2.93;74.96
40794;BME280;26502;51.886;15.604;2023-01-29T03:06:19;101763.84;;;-2.96;75.15
40794;BME280;26502;51.886;15.604;2023-01-29T03:11:33;101763.23;;;-3.03;75.20
40794;BME280;26502;51.886;15.604;2023-01-29T03:16:44;101755.50;;;-3.09;75.26
40794;BME280;26502;51.886;15.604;2023-01-29T03:21:56;101757.16;;;-3.11;75.57
40794;BME280;26502;51.886;15.604;2023-01-29T03:27:09;101747.58;;;-3.12;75.61
40794;BME280;26502;51.886;15.604;2023-01-29T03:32:36;101742.16;;;-3.08;75.76
40794;BME280;26502;51.886;15.604;2023-01-29T03:37:47;101743.73;;;-3.03;75.79
40794;BME280;26502;51.886;15.604;2023-01-29T03:43:03;101736.55;;;-3.00;75.80
40794;BME280;26502;51.886;15.604;2023-01-29T03:48:19;101741.90;;;-2.93;75.84
40794;BME280;26502;51.886;15.604;2023-01-29T03:53:33;101732.08;;;-2.86;75.98
40794;BME280;26502;51.886;15.604;2023-01-29T03:58:53;101722.20;;;-2.81;75.85
40794;BME280;26502;51.886;15.604;2023-01-29T04:04:13;101712.92;;;-2.73;76.08
40794;BME280;26502;51.886;15.604;2023-01-29T04:09:26;101710.19;;;-2.67;75.96
40794;BME280;26502;51.886;15.604;2023-01-29T04:14:36;101703.88;;;-2.65;75.87
40794;BME280;26502;51.886;15.604;2023-01-29T04:19:45;101709.16;;;-2.63;75.83
40794;BME280;26502;51.886;15.604;2023-01-29T04:24:54;101701.52;;;-2.58;75.74
40794;BME280;26502;51.886;15.604;2023-01-29T04:30:27;101682.73;;;-2.57;75.88
40794;BME280;26502;51.886;15.604;2023-01-29T04:35:46;101664.08;;;-2.54;75.91
40794;BME280;26502;51.886;15.604;2023-01-29T04:41:02;101657.65;;;-2.49;75.55
40794;BME280;26502;51.886;15.604;2023-01-29T04:46:14;101649.36;;;-2.48;75.58
40794;BME280;26502;51.886;15.604;2023-01-29T04:51:39;101647.86;;;-2.46;75.62
40794;BME280;26502;51.886;15.604;2023-01-29T04:56:56;101637.20;;;-2.42;75.53
40794;BME280;26502;51.886;15.604;2023-01-29T05:02:10;101634.38;;;-2.38;75.43
40794;BME280;26502;51.886;15.604;2023-01-29T05:07:19;101630.84;;;-2.35;75.38
40794;BME280;26502;51.886;15.604;2023-01-29T05:12:29;101635.29;;;-2.37;75.07
40794;BME280;26502;51.886;15.604;2023-01-29T05:17:37;101630.35;;;-2.39;75.35
40794;BME280;26502;51.886;15.604;2023-01-29T05:22:45;101626.13;;;-2.35;75.50
40794;BME280;26502;51.886;15.604;2023-01-29T05:27:54;101629.30;;;-2.35;75.32
40794;BME280;26502;51.886;15.604;2023-01-29T05:33:18;101626.22;;;-2.33;75.49
40794;BME280;26502;51.886;15.604;2023-01-29T05:38:25;101626.87;;;-2.34;75.46
40794;BME280;26502;51.886;15.604;2023-01-29T05:43:33;101623.64;;;-2.37;75.57
40794;BME280;26502;51.886;15.604;2023-01-29T05:48:40;101618.88;;;-2.39;75.54
40794;BME280;26502;51.886;15.604;2023-01-29T05:53:48;101624.95;;;-2.39;75.99
40794;BME280;26502;51.886;15.604;2023-01-29T05:58:55;101630.29;;;-2.41;76.09
40794;BME280;26502;51.886;15.604;2023-01-29T06:04:03;101631.67;;;-2.41;76.07
40794;BME280;26502;51.886;15.604;2023-01-29T06:09:12;101642.36;;;-2.39;75.97
40794;BME280;26502;51.886;15.604;2023-01-29T06:14:19;101651.04;;;-2.40;76.16
40794;BME280;26502;51.886;15.604;2023-01-29T06:19:27;101660.00;;;-2.37;76.31
40794;BME280;26502;51.886;15.604;2023-01-29T06:24:34;101669.24;;;-2.36;76.36
40794;BME280;26502;51.886;15.604;2023-01-29T06:29:41;101672.30;;;-2.34;76.45
40794;BME280;26502;51.886;15.604;2023-01-29T06:34:49;101673.27;;;-2.31;76.44
40794;BME280;26502;51.886;15.604;2023-01-29T06:39:59;101674.91;;;-2.29;76.42
40794;BME280;26502;51.886;15.604;2023-01-29T06:45:08;101669.18;;;-2.23;76.37
40794;BME280;26502;51.886;15.604;2023-01-29T06:50:16;101693.05;;;-2.18;76.34
40794;BME280;26502;51.886;15.604;2023-01-29T06:55:23;101689.73;;;-2.13;76.15
40794;BME280;26502;51.886;15.604;2023-01-29T07:00:31;101687.20;;;-2.11;76.10
40794;BME280;26502;51.886;15.604;2023-01-29T07:05:39;101692.11;;;-2.05;76.02
40794;BME280;26502;51.886;15.604;2023-01-29T07:10:47;101683.88;;;-2.01;75.79
40794;BME280;26502;51.886;15.604;2023-01-29T07:15:58;101669.84;;;-2.00;75.69
40794;BME280;26502;51.886;15.604;2023-01-29T07:21:07;101660.58;;;-1.96;75.64
40794;BME280;26502;51.886;15.604;2023-01-29T07:26:15;101653.11;;;-1.90;75.60
40794;BME280;26502;51.886;15.604;2023-01-29T07:31:22;101644.42;;;-1.84;75.63
40794;BME280;26502;51.886;15.604;2023-01-29T07:36:32;101639.98;;;-1.82;75.48
40794;BME280;26502;51.886;15.604;2023-01-29T07:41:41;101638.69;;;-1.79;75.47
40794;BME280;26502;51.886;15.604;2023-01-29T07:46:55;101637.25;;;-1.69;75.59
40794;BME280;26502;51.886;15.604;2023-01-29T07:52:02;101632.99;;;-1.62;75.71
40794;BME280;26502;51.886;15.604;2023-01-29T07:57:10;101627.30;;;-1.60;75.20
40794;BME280;26502;51.886;15.604;2023-01-29T08:02:17;101633.02;;;-1.55;75.33
40794;BME280;26502;51.886;15.604;2023-01-29T08:07:25;101630.35;;;-1.51;75.29
40794;BME280;26502;51.886;15.604;2023-01-29T08:12:34;101631.23;;;-1.46;75.27
40794;BME280;26502;51.886;15.604;2023-01-29T08:17:41;101628.77;;;-1.46;75.35
40794;BME280;26502;51.886;15.604;2023-01-29T08:22:49;101624.52;;;-1.43;75.41
40794;BME280;26502;51.886;15.604;2023-01-29T08:28:04;101616.80;;;-1.45;75.47
40794;BME280;26502;51.886;15.604;2023-01-29T08:33:12;101616.64;;;-1.44;75.70
40794;BME280;26502;51.886;15.604;2023-01-29T08:38:20;101597.48;;;-1.44;75.98
40794;BME280;26502;51.886;15.604;2023-01-29T08:43:27;101597.08;;;-1.40;76.23
40794;BME280;26502;51.886;15.604;2023-01-29T08:48:34;101598.98;;;-1.35;76.30
40794;BME280;26502;51.886;15.604;2023-01-29T08:53:43;101595.92;;;-1.33;76.36
40794;BME280;26502;51.886;15.604;2023-01-29T08:58:52;101593.41;;;-1.29;76.52
40794;BME280;26502;51.886;15.604;2023-01-29T09:04:00;101599.38;;;-1.28;76.63
40794;BME280;26502;51.886;15.604;2023-01-29T09:09:08;101598.70;;;-1.27;76.77
40794;BME280;26502;51.886;15.604;2023-01-29T09:14:18;101601.16;;;-1.27;77.02
40794;BME280;26502;51.886;15.604;2023-01-29T09:19:26;101594.19;;;-1.32;77.28
40794;BME280;26502;51.886;15.604;2023-01-29T09:24:33;101583.52;;;-1.33;77.46
40794;BME280;26502;51.886;15.604;2023-01-29T09:29:41;101582.06;;;-1.35;77.96
40794;BME280;26502;51.886;15.604;2023-01-29T09:34:48;101582.41;;;-1.42;78.29
40794;BME280;26502;51.886;15.604;2023-01-29T09:39:55;101584.05;;;-1.45;78.58
40794;BME280;26502;51.886;15.604;2023-01-29T09:45:05;101589.95;;;-1.39;79.01
40794;BME280;26502;51.886;15.604;2023-01-29T09:50:19;101586.48;;;-1.39;79.13
40794;BME280;26502;51.886;15.604;2023-01-29T09:55:29;101584.64;;;-1.36;79.34
40794;BME280;26502;51.886;15.604;2023-01-29T10:00:49;101588.15;;;-1.36;79.48
40794;BME280;26502;51.886;15.604;2023-01-29T10:06:18;101578.50;;;-1.32;79.72
40794;BME280;26502;51.886;15.604;2023-01-29T10:11:37;101580.28;;;-1.31;79.72
40794;BME280;26502;51.886;15.604;2023-01-29T10:16:58;101579.25;;;-1.30;79.98
40794;BME280;26502;51.886;15.604;2023-01-29T10:22:31;101577.00;;;-1.30;79.99
40794;BME280;26502;51.886;15.604;2023-01-29T10:27:49;101564.10;;;-1.30;80.24
40794;BME280;26502;51.886;15.604;2023-01-29T10:33:02;101551.00;;;-1.31;80.57
40794;BME280;26502;51.886;15.604;2023-01-29T10:38:23;101524.01;;;-1.30;80.88
40794;BME280;26502;51.886;15.604;2023-01-29T10:43:41;101506.43;;;-1.29;80.97
40794;BME280;26502;51.886;15.604;2023-01-29T10:49:03;101502.67;;;-1.27;81.14
40794;BME280;26502;51.886;15.604;2023-01-29T10:54:28;101500.88;;;-1.23;81.25
40794;BME280;26502;51.886;15.604;2023-01-29T10:59:57;101492.69;;;-1.16;81.26
40794;BME280;26502;51.886;15.604;2023-01-29T11:05:20;101491.85;;;-1.10;81.35
40794;BME280;26502;51.886;15.604;2023-01-29T11:10:35;101484.94;;;-1.07;81.46
40794;BME280;26502;51.886;15.604;2023-01-29T11:15:44;101487.14;;;-1.03;81.48
40794;BME280;26502;51.886;15.604;2023-01-29T11:21:02;101479.80;;;-0.97;81.25
40794;BME280;26502;51.886;15.604;2023-01-29T11:26:13;101478.64;;;-0.95;81.43
40794;BME280;26502;51.886;15.604;2023-01-29T11:31:25;101482.08;;;-0.90;81.56
40794;BME280;26502;51.886;15.604;2023-01-29T11:36:36;101493.60;;;-0.90;81.45
40794;BME280;26502;51.886;15.604;2023-01-29T11:41:49;101478.59;;;-0.84;81.43
40794;BME280;26502;51.886;15.604;2023-01-29T11:47:16;101459.61;;;-0.82;81.31
40794;BME280;26502;51.886;15.604;2023-01-29T11:52:32;101445.57;;;-0.86;81.60
40794;BME280;26502;51.886;15.604;2023-01-29T11:57:45;101432.04;;;-0.84;81.49
40794;BME280;26502;51.886;15.604;2023-01-29T12:02:56;101421.41;;;-0.83;81.53
40794;BME280;26502;51.886;15.604;2023-01-29T12:08:16;101421.99;;;-0.81;81.63
40794;BME280;26502;51.886;15.604;2023-01-29T12:13:28;101430.02;;;-0.88;81.73
40794;BME280;26502;51.886;15.604;2023-01-29T12:18:40;101424.37;;;-0.90;82.13
40794;BME280;26502;51.886;15.604;2023-01-29T12:23:56;101421.30;;;-0.94;82.31
40794;BME280;26502;51.886;15.604;2023-01-29T12:29:30;101421.98;;;-0.89;82.45
40794;BME280;26502;51.886;15.604;2023-01-29T12:34:45;101413.27;;;-0.88;82.56
40794;BME280;26502;51.886;15.604;2023-01-29T12:39:55;101406.70;;;-0.93;82.88
40794;BME280;26502;51.886;15.604;2023-01-29T12:45:05;101394.70;;;-0.91;82.98
40794;BME280;26502;51.886;15.604;2023-01-29T12:50:20;101396.48;;;-0.90;83.23
40794;BME280;26502;51.886;15.604;2023-01-29T12:55:35;101386.70;;;-0.83;83.25
40794;BME280;26502;51.886;15.604;2023-01-29T13:00:47;101377.38;;;-0.87;83.58
40794;BME280;26502;51.886;15.604;2023-01-29T13:06:01;101373.31;;;-0.89;83.93
40794;BME280;26502;51.886;15.604;2023-01-29T13:11:15;101366.36;;;-0.88;83.97
40794;BME280;26502;51.886;15.604;2023-01-29T13:16:32;101352.33;;;-0.84;84.09
40794;BME280;26502;51.886;15.604;2023-01-29T13:21:44;101344.07;;;-0.80;84.13
40794;BME280;26502;51.886;15.604;2023-01-29T13:26:52;101332.99;;;-0.76;84.22
40794;BME280;26502;51.886;15.604;2023-01-29T13:32:01;101341.36;;;-0.76;84.48
40794;BME280;26502;51.886;15.604;2023-01-29T13:37:15;101347.30;;;-0.76;84.57
40794;BME280;26502;51.886;15.604;2023-01-29T13:42:35;101346.21;;;-0.70;84.52
40794;BME280;26502;51.886;15.604;2023-01-29T13:47:44;101345.64;;;-0.73;84.76
40794;BME280;26502;51.886;15.604;2023-01-29T13:52:58;101341.73;;;-0.68;84.88
40794;BME280;26502;51.886;15.604;2023-01-29T13:58:06;101342.40;;;-0.69;84.83
40794;BME280;26502;51.886;15.604;2023-01-29T14:03:44;101342.66;;;-0.66;84.99
40794;BME280;26502;51.886;15.604;2023-01-29T14:08:52;101336.41;;;-0.64;84.84
40794;BME280;26502;51.886;15.604;2023-01-29T14:13:59;101327.98;;;-0.59;84.84
40794;BME280;26502;51.886;15.604;2023-01-29T14:19:14;101334.31;;;-0.57;84.94
40794;BME280;26502;51.886;15.604;2023-01-29T14:24:31;101329.32;;;-0.55;84.99
40794;BME280;26502;51.886;15.604;2023-01-29T14:29:42;101320.32;;;-0.59;84.93
40794;BME280;26502;51.886;15.604;2023-01-29T14:34:53;101333.04;;;-0.59;84.95
40794;BME280;26502;51.886;15.604;2023-01-29T14:40:18;101325.17;;;-0.60;85.02
40794;BME280;26502;51.886;15.604;2023-01-29T14:45:29;101315.00;;;-0.63;85.09
40794;BME280;26502;51.886;15.604;2023-01-29T14:50:43;101305.23;;;-0.62;85.13
40794;BME280;26502;51.886;15.604;2023-01-29T14:55:57;101301.42;;;-0.61;85.17
40794;BME280;26502;51.886;15.604;2023-01-29T15:01:13;101304.23;;;-0.60;85.06
40794;BME280;26502;51.886;15.604;2023-01-29T15:06:29;101304.45;;;-0.58;85.15
40794;BME280;26502;51.886;15.604;2023-01-29T15:12:01;101300.40;;;-0.53;84.93
40794;BME280;26502;51.886;15.604;2023-01-29T15:17:26;101292.75;;;-0.52;84.94
40794;BME280;26502;51.886;15.604;2023-01-29T15:22:43;101291.53;;;-0.51;84.92
40794;BME280;26502;51.886;15.604;2023-01-29T15:27:50;101291.61;;;-0.48;84.75
40794;BME280;26502;51.886;15.604;2023-01-29T15:32:59;101283.98;;;-0.45;84.52
40794;BME280;26502;51.886;15.604;2023-01-29T15:38:15;101283.06;;;-0.48;84.55
40794;BME280;26502;51.886;15.604;2023-01-29T15:43:25;101280.55;;;-0.50;84.49
40794;BME280;26502;51.886;15.604;2023-01-29T15:48:37;101274.83;;;-0.57;84.63
40794;BME280;26502;51.886;15.604;2023-01-29T15:53:49;101272.91;;;-0.57;84.74
40794;BME280;26502;51.886;15.604;2023-01-29T15:59:06;101264.06;;;-0.55;84.66
40794;BME280;26502;51.886;15.604;2023-01-29T16:04:19;101260.77;;;-0.54;84.49
40794;BME280;26502;51.886;15.604;2023-01-29T16:09:33;101258.36;;;-0.52;84.71
40794;BME280;26502;51.886;15.604;2023-01-29T16:14:42;101257.05;;;-0.56;84.73
40794;BME280;26502;51.886;15.604;2023-01-29T16:20:00;101253.21;;;-0.56;84.74
40794;BME280;26502;51.886;15.604;2023-01-29T16:25:13;101248.58;;;-0.53;84.75
40794;BME280;26502;51.886;15.604;2023-01-29T16:30:26;101243.25;;;-0.49;84.64
40794;BME280;26502;51.886;15.604;2023-01-29T16:35:37;101237.25;;;-0.43;84.61
40794;BME280;26502;51.886;15.604;2023-01-29T16:41:27;101237.48;;;-0.40;84.69
40794;BME280;26502;51.886;15.604;2023-01-29T16:46:43;101237.91;;;-0.38;84.52
40794;BME280;26502;51.886;15.604;2023-01-29T16:51:54;101232.35;;;-0.37;84.46
40794;BME280;26502;51.886;15.604;2023-01-29T16:57:10;101222.92;;;-0.36;84.60
40794;BME280;26502;51.886;15.604;2023-01-29T17:02:25;101218.59;;;-0.35;84.29
40794;BME280;26502;51.886;15.604;2023-01-29T17:07:41;101216.00;;;-0.33;84.35
40794;BME280;26502;51.886;15.604;2023-01-29T17:12:55;101213.45;;;-0.30;84.12
40794;BME280;26502;51.886;15.604;2023-01-29T17:18:17;101215.08;;;-0.27;84.11
40794;BME280;26502;51.886;15.604;2023-01-29T17:23:27;101220.73;;;-0.25;84.14
40794;BME280;26502;51.886;15.604;2023-01-29T17:28:41;101216.91;;;-0.23;83.93
40794;BME280;26502;51.886;15.604;2023-01-29T17:33:54;101213.99;;;-0.21;83.79
40794;BME280;26502;51.886;15.604;2023-01-29T17:39:10;101206.18;;;-0.19;83.89
40794;BME280;26502;51.886;15.604;2023-01-29T17:44:23;101197.85;;;-0.16;83.67
40794;BME280;26502;51.886;15.604;2023-01-29T17:49:34;101183.58;;;-0.14;83.51
40794;BME280;26502;51.886;15.604;2023-01-29T17:54:49;101172.24;;;-0.13;83.31
40794;BME280;26502;51.886;15.604;2023-01-29T17:59:59;101171.91;;;-0.12;83.04
40794;BME280;26502;51.886;15.604;2023-01-29T18:05:14;101158.11;;;-0.12;83.07
40794;BME280;26502;51.886;15.604;2023-01-29T18:10:22;101155.89;;;-0.10;82.70
40794;BME280;26502;51.886;15.604;2023-01-29T18:15:32;101155.67;;;-0.13;82.65
40794;BME280;26502;51.886;15.604;2023-01-29T18:20:42;101146.05;;;-0.14;82.39
40794;BME280;26502;51.886;15.604;2023-01-29T18:25:52;101142.02;;;-0.14;82.23
40794;BME280;26502;51.886;15.604;2023-01-29T18:31:04;101134.67;;;-0.15;81.85
40794;BME280;26502;51.886;15.604;2023-01-29T18:36:14;101133.07;;;-0.17;81.61
40794;BME280;26502;51.886;15.604;2023-01-29T18:41:25;101120.64;;;-0.19;81.63
40794;BME280;26502;51.886;15.604;2023-01-29T18:46:35;101100.16;;;-0.22;81.68
40794;BME280;26502;51.886;15.604;2023-01-29T18:51:45;101084.59;;;-0.24;81.52
40794;BME280;26502;51.886;15.604;2023-01-29T18:56:55;101073.62;;;-0.22;81.35
40794;BME280;26502;51.886;15.604;2023-01-29T19:02:03;101071.69;;;-0.23;81.19
40794;BME280;26502;51.886;15.604;2023-01-29T19:07:13;101063.50;;;-0.22;81.14
40794;BME280;26502;51.886;15.604;2023-01-29T19:12:20;101051.97;;;-0.22;81.02
40794;BME280;26502;51.886;15.604;2023-01-29T19:17:30;101047.95;;;-0.23;80.91
40794;BME280;26502;51.886;15.604;2023-01-29T19:22:38;101044.64;;;-0.22;80.79
40794;BME280;26502;51.886;15.604;2023-01-29T19:27:48;101031.37;;;-0.23;80.75
40794;BME280;26502;51.886;15.604;2023-01-29T19:33:00;101023.50;;;-0.23;80.74
40794;BME280;26502;51.886;15.604;2023-01-29T19:38:11;101018.66;;;-0.21;80.75
40794;BME280;26502;51.886;15.604;2023-01-29T19:43:29;101016.39;;;-0.21;80.38
40794;BME280;26502;51.886;15.604;2023-01-29T19:48:40;101024.40;;;-0.22;80.61
40794;BME280;26502;51.886;15.604;2023-01-29T19:53:59;101023.01;;;-0.22;80.53
40794;BME280;26502;51.886;15.604;2023-01-29T19:59:13;101021.60;;;-0.22;80.63
40794;BME280;26502;51.886;15.604;2023-01-29T20:04:24;101018.98;;;-0.21;80.49
40794;BME280;26502;51.886;15.604;2023-01-29T20:09:35;101017.45;;;-0.20;80.46
40794;BME280;26502;51.886;15.604;2023-01-29T20:14:45;101011.48;;;-0.21;80.35
40794;BME280;26502;51.886;15.604;2023-01-29T20:20:00;101006.94;;;-0.22;80.11
40794;BME280;26502;51.886;15.604;2023-01-29T20:25:10;100999.43;;;-0.23;80.09
40794;BME280;26502;51.886;15.604;2023-01-29T20:30:24;100991.02;;;-0.25;80.05
40794;BME280;26502;51.886;15.604;2023-01-29T20:35:36;100985.58;;;-0.27;79.96
40794;BME280;26502;51.886;15.604;2023-01-29T20:40:46;100978.00;;;-0.31;79.89
40794;BME280;26502;51.886;15.604;2023-01-29T20:46:00;100978.14;;;-0.32;80.02
40794;BME280;26502;51.886;15.604;2023-01-29T20:51:18;100973.75;;;-0.35;79.91
40794;BME280;26502;51.886;15.604;2023-01-29T20:56:27;100962.64;;;-0.32;79.75
40794;BME280;26502;51.886;15.604;2023-01-29T21:01:38;100948.45;;;-0.33;79.65
40794;BME280;26502;51.886;15.604;2023-01-29T21:06:46;100936.77;;;-0.32;79.67
40794;BME280;26502;51.886;15.604;2023-01-29T21:11:56;100937.24;;;-0.37;79.38
40794;BME280;26502;51.886;15.604;2023-01-29T21:17:07;100930.08;;;-0.37;79.31
40794;BME280;26502;51.886;15.604;2023-01-29T21:22:19;100920.46;;;-0.38;79.39
40794;BME280;26502;51.886;15.604;2023-01-29T21:27:33;100915.92;;;-0.38;79.36
40794;BME280;26502;51.886;15.604;2023-01-29T21:32:43;100902.50;;;-0.37;79.35
40794;BME280;26502;51.886;15.604;2023-01-29T21:37:53;100898.46;;;-0.40;79.05
40794;BME280;26502;51.886;15.604;2023-01-29T21:43:03;100888.32;;;-0.40;79.01
40794;BME280;26502;51.886;15.604;2023-01-29T21:48:20;100874.83;;;-0.44;78.89
40794;BME280;26502;51.886;15.604;2023-01-29T21:53:28;100861.08;;;-0.52;78.89
40794;BME280;26502;51.886;15.604;2023-01-29T21:58:36;100855.98;;;-0.56;79.17
40794;BME280;26502;51.886;15.604;2023-01-29T22:03:45;100846.76;;;-0.54;79.08
40794;BME280;26502;51.886;15.604;2023-01-29T22:08:53;100827.43;;;-0.52;79.04
40794;BME280;26502;51.886;15.604;2023-01-29T22:14:01;100817.15;;;-0.51;79.01
40794;BME280;26502;51.886;15.604;2023-01-29T22:19:08;100804.23;;;-0.51;78.79
40794;BME280;26502;51.886;15.604;2023-01-29T22:24:16;100786.46;;;-0.49;78.71
40794;BME280;26502;51.886;15.604;2023-01-29T22:29:23;100781.91;;;-0.50;78.28
40794;BME280;26502;51.886;15.604;2023-01-29T22:34:30;100773.67;;;-0.53;78.41
40794;BME280;26502;51.886;15.604;2023-01-29T22:39:38;100757.44;;;-0.54;78.28
40794;BME280;26502;51.886;15.604;2023-01-29T22:44:46;100747.30;;;-0.56;78.30
40794;BME280;26502;51.886;15.604;2023-01-29T22:49:54;100737.70;;;-0.55;78.18
40794;BME280;26502;51.886;15.604;2023-01-29T22:55:01;100724.48;;;-0.53;78.09
40794;BME280;26502;51.886;15.604;2023-01-29T23:00:12;100712.63;;;-0.52;77.90
40794;BME280;26502;51.886;15.604;2023-01-29T23:05:17;100706.55;;;-0.50;77.89
40794;BME280;26502;51.886;15.604;2023-01-29T23:10:27;100698.70;;;-0.50;77.60
40794;BME280;26502;51.886;15.604;2023-01-29T23:15:35;100684.05;;;-0.50;77.38
40794;BME280;26502;51.886;15.604;2023-01-29T23:20:42;100670.61;;;-0.50;77.29
40794;BME280;26502;51.886;15.604;2023-01-29T23:25:55;100668.67;;;-0.52;77.23
40794;BME280;26502;51.886;15.604;2023-01-29T23:31:20;100650.19;;;-0.51;77.11
40794;BME280;26502;51.886;15.604;2023-01-29T23:36:27;100638.48;;;-0.53;77.08
40794;BME280;26502;51.886;15.604;2023-01-29T23:41:35;100626.60;;;-0.54;76.83
40794;BME280;26502;51.886;15.604;2023-01-29T23:46:43;100621.16;;;-0.56;76.61
40794;BME280;26502;51.886;15.604;2023-01-29T23:51:51;100614.15;;;-0.58;76.60
40794;BME280;26502;51.886;15.604;2023-01-29T23:56:58;100605.63;;;-0.58;76.21
